Ongar, United Kingdom
Current Conditions -  °F | °C
As of 9:20 PM on Thursday 23 Oct 2014 (Local Time) from EGSS Reporting Station
Overcast Overcast  
Wind Chill: 14°   Ceiling: 900
Heat Index: 14°   Visibility: 6mi
Dew Point: 13°   Wind: 12mph
Humidity: 94%   Direction: 220°SW
Pressure: 30.03"   Gusts: NA
Location:  51.71°N, 0.24°E
Report Text: EGSS 232020Z 22010KT 9999 OVC009 14/13 Q1017
Loading
Personal Weather Stations






























Interactive Weather Map
Tropical Storm Tracking
New forecast layout! Learn more

10-Day Weather Forecast

Advertisements
Track Severe Weather on mobile